Terminal Aerodrome Forecast
Issued by NWS Corpus Christi, TX

Home | Current Version | Previous Version | Text Only | Print | Product List | Glossary On
Versions: 1 2 3 4 5 6 7 8 9 10 11 12 13 14 15 16 17 18 19 20 21 22 23 24 25 26
000
FTUS44 KCRP 040500
TAFCRP
TAF
KCRP 040520Z 0406/0506 15014G21KT 4SM BR OVC002
      TEMPO 0406/0408 1SM -DZ BR
     FM040800 15012KT 1/2SM FG VV002
     FM041600 17012KT 3SM BR OVC008
     FM041900 17015KT P6SM BKN012 OVC025
     FM042200 15017KT P6SM SCT025
     FM050100 13012KT P6SM BKN008
     FM050330 36022G32KT 5SM -SHRA BR OVC006=

USA.gov is the U.S. government's official web portal to all federal, state and local government web resources and services.